Terminal Aerodrome Forecast
Issued by NWS

Home | Current Version | Previous Version | Text Only | Print | Product List | Glossary On
Versions: 1 2 3 4 5 6 7 8 9 10 11 12 13 14 15 16 17 18 19 20 21
000
FTAK31 PAJN 031140
TAFAKT
TAF
PAKT 031140Z 0312/0412 34007KT P6SM -RA OVC015
     FM031500 30007KT P6SM -RA FEW003 BKN025 OVC050
     FM031800 31008KT P6SM -SHRA BKN040 OVC080
     FM032000 11008KT P6SM VCSH SCT040 OVC080
     FM040000 13009KT P6SM BKN040 BKN080
     FM041000 14004KT P6SM VCSH OVC080
      AMD LTD TO CLD VIS AND WIND 0312/0315=

USA.gov is the U.S. government's official web portal to all federal, state and local government web resources and services.